Terminal Aerodrome Forecast
Issued by NWS St Louis, MO

Home | Current Version | Previous Version | Text Only | Print | Product List | Glossary On
Versions: 1 2 3 4 5 6 7 8 9 10 11 12 13 14 15 16 17
000
FTUS43 KLSX 271100
TAFCOU
TAF
KCOU 271140Z 2712/2812 32012KT P6SM OVC015
     FM271600 31010KT P6SM OVC025
     FM271900 31007KT P6SM SCT025 SCT100
     FM272300 VRB04KT P6SM BKN100
     FM281100 16009KT P6SM SCT080=

USA.gov is the U.S. government's official web portal to all federal, state and local government web resources and services.